Time;durP1;ratioP1;P1;durP2;ratioP2;P2;SDS_P1;SDS_P2;PMS_P1;PMS_P2;Temp;Humidity;BMP_temperature;BMP_pressure;BME280_temperature;BME280_humidity;BME280_pressure;Samples;Min_cycle;Max_cycle;Signal;HPM_P1;HPM_P2
2023/09/09 00:00:12;;;;;;;1.40;0.50;;;15.80;73.70;;;;;;4947200;29;20564;-94
2023/09/09 00:02:45;;;;;;;1.77;0.70;;;16.00;74.70;;;;;;4950258;29;20232;-94
2023/09/09 00:05:16;;;;;;;0.88;0.32;;;16.20;71.00;;;;;;4956053;29;20660;-95
2023/09/09 00:07:46;;;;;;;0.93;0.50;;;16.30;69.30;;;;;;4936869;29;20210;-93
2023/09/09 00:10:17;;;;;;;1.60;0.60;;;16.30;70.10;;;;;;4945504;29;20192;-94
2023/09/09 00:12:48;;;;;;;2.60;0.50;;;16.30;68.60;;;;;;4956340;29;20200;-93
2023/09/09 00:15:19;;;;;;;1.63;0.50;;;16.40;68.70;;;;;;4955970;29;20203;-93
2023/09/09 00:17:53;;;;;;;1.42;0.50;;;16.40;65.80;;;;;;4956197;29;20200;-93
2023/09/09 00:20:32;;;;;;;2.22;0.55;;;16.30;61.60;;;;;;4947176;29;20232;-94
2023/09/09 00:23:07;;;;;;;1.65;0.70;;;16.30;64.20;;;;;;4955856;29;20643;-94
2023/09/09 00:25:37;;;;;;;1.40;0.60;;;16.40;60.60;;;;;;4955991;29;20663;-93
2023/09/09 00:28:09;;;;;;;2.00;0.60;;;16.40;60.30;;;;;;4956181;29;20254;-95
2023/09/09 00:30:40;;;;;;;2.33;0.40;;;16.50;62.50;;;;;;4956496;29;20196;-94
2023/09/09 00:33:12;;;;;;;1.98;0.40;;;16.70;62.80;;;;;;4960573;28;20232;-94
2023/09/09 00:35:43;;;;;;;0.60;0.40;;;16.80;58.80;;;;;;4971941;29;20191;-93
2023/09/09 00:38:17;;;;;;;1.27;0.55;;;16.80;59.50;;;;;;4950246;29;20713;-94
2023/09/09 00:41:15;;;;;;;1.45;0.60;;;16.90;61.30;;;;;;4955886;28;20282;-93
2023/09/09 00:43:46;;;;;;;2.08;0.55;;;17.10;59.40;;;;;;4953497;29;20600;-93
2023/09/09 00:46:21;;;;;;;0.85;0.50;;;17.20;60.50;;;;;;4955429;29;20192;-93
2023/09/09 00:48:54;;;;;;;0.70;0.40;;;17.30;58.90;;;;;;4956191;29;20195;-93
2023/09/09 00:51:25;;;;;;;1.85;0.70;;;17.30;58.90;;;;;;4955380;29;20204;-93
2023/09/09 00:53:55;;;;;;;1.77;0.60;;;17.40;57.20;;;;;;4940823;29;20208;-93
2023/09/09 00:56:27;;;;;;;2.47;0.50;;;17.70;55.60;;;;;;4940390;29;20287;-95
2023/09/09 00:58:57;;;;;;;1.63;0.50;;;17.70;52.90;;;;;;4946419;29;20192;-92
2023/09/09 01:01:29;;;;;;;1.88;0.60;;;17.60;51.60;;;;;;4944412;29;20207;-94
2023/09/09 01:04:03;;;;;;;1.65;0.60;;;17.60;53.40;;;;;;4948023;29;20216;-91
2023/09/09 01:06:34;;;;;;;0.80;0.40;;;17.50;49.70;;;;;;4970414;28;20204;-91
2023/09/09 01:09:09;;;;;;;0.93;0.68;;;17.30;49.70;;;;;;4951324;29;20192;-93
2023/09/09 01:11:40;;;;;;;0.60;0.40;;;17.20;51.00;;;;;;4936182;29;20242;-91
2023/09/09 01:14:12;;;;;;;2.50;0.80;;;17.30;51.80;;;;;;4936213;29;20205;-93
2023/09/09 01:16:44;;;;;;;1.88;0.80;;;17.40;50.70;;;;;;4955270;29;20232;-93
2023/09/09 01:19:20;;;;;;;0.95;0.57;;;17.30;49.80;;;;;;4955333;29;20211;-91
2023/09/09 01:21:53;;;;;;;1.23;0.73;;;17.40;50.40;;;;;;4954948;29;20196;-93
2023/09/09 01:24:26;;;;;;;2.85;0.63;;;17.60;51.00;;;;;;4954704;29;20214;-93
2023/09/09 01:26:57;;;;;;;1.88;0.85;;;17.40;49.40;;;;;;4954818;28;20218;-91
2023/09/09 01:29:28;;;;;;;1.50;0.52;;;17.60;48.80;;;;;;4955535;29;20188;-92
2023/09/09 01:31:59;;;;;;;2.40;0.70;;;17.80;49.60;;;;;;4954663;29;20208;-91
2023/09/09 01:34:30;;;;;;;1.98;0.82;;;17.80;49.20;;;;;;4955856;29;20224;-92
2023/09/09 01:37:00;;;;;;;1.83;0.70;;;17.90;49.50;;;;;;4956508;29;20691;-93
2023/09/09 01:39:33;;;;;;;1.48;0.60;;;18.00;49.20;;;;;;4953691;29;20208;-93
2023/09/09 01:42:04;;;;;;;1.65;0.50;;;17.90;46.90;;;;;;4959577;29;20574;-92
2023/09/09 01:44:35;;;;;;;1.90;0.63;;;18.00;47.80;;;;;;4958449;29;20196;-92
2023/09/09 01:47:06;;;;;;;1.77;0.80;;;18.10;46.60;;;;;;4954986;29;20200;-92
2023/09/09 01:49:37;;;;;;;2.97;1.40;;;18.00;46.60;;;;;;4954719;29;20679;-92
2023/09/09 01:52:08;;;;;;;1.77;0.52;;;18.20;47.20;;;;;;4954863;28;20196;-91
2023/09/09 01:54:41;;;;;;;1.92;0.80;;;18.40;46.50;;;;;;4943024;29;20216;-91
2023/09/09 01:57:11;;;;;;;2.30;0.60;;;18.60;47.00;;;;;;4940639;29;20200;-93
2023/09/09 01:59:42;;;;;;;2.40;0.93;;;18.80;45.50;;;;;;4955027;29;20207;-91
2023/09/09 02:02:15;;;;;;;3.22;1.10;;;18.90;45.50;;;;;;4943404;29;20199;-95
2023/09/09 02:04:46;;;;;;;2.40;0.90;;;19.00;46.70;;;;;;4936401;29;20256;-94
2023/09/09 02:07:17;;;;;;;2.47;1.10;;;19.10;44.50;;;;;;4939259;29;20231;-92
2023/09/09 02:09:50;;;;;;;2.72;0.85;;;18.90;44.60;;;;;;4955817;29;20207;-91
2023/09/09 02:12:21;;;;;;;1.65;0.60;;;18.80;45.90;;;;;;4968977;29;20218;-92
2023/09/09 02:14:52;;;;;;;1.20;0.60;;;18.90;46.30;;;;;;4956510;29;20334;-93
2023/09/09 02:17:24;;;;;;;2.75;0.80;;;19.00;44.70;;;;;;4954714;29;20193;-90
2023/09/09 02:19:57;;;;;;;2.17;0.70;;;19.10;45.80;;;;;;4955516;29;20204;-93
2023/09/09 02:22:28;;;;;;;1.70;0.52;;;19.40;45.90;;;;;;4955743;29;20238;-88
2023/09/09 02:25:01;;;;;;;2.45;0.60;;;19.60;46.60;;;;;;4955218;29;20631;-92
2023/09/09 02:27:32;;;;;;;1.33;0.82;;;19.60;42.70;;;;;;4954833;29;20663;-93
2023/09/09 02:30:04;;;;;;;1.95;0.50;;;19.70;44.70;;;;;;4954828;29;20691;-92
2023/09/09 02:32:35;;;;;;;2.67;0.88;;;19.80;44.00;;;;;;4949128;29;20220;-94
2023/09/09 02:35:08;;;;;;;1.73;0.55;;;19.60;43.50;;;;;;4939448;29;20612;-90
2023/09/09 02:37:42;;;;;;;1.38;0.50;;;19.60;41.70;;;;;;4951948;29;20199;-93
2023/09/09 02:40:15;;;;;;;2.03;0.80;;;19.60;43.60;;;;;;4965660;29;20230;-93
2023/09/09 02:42:46;;;;;;;4.60;1.30;;;19.90;42.60;;;;;;4961595;29;20228;-92
2023/09/09 02:45:17;;;;;;;3.38;1.45;;;19.90;42.40;;;;;;4941866;29;20206;-93
2023/09/09 02:47:48;;;;;;;1.88;0.60;;;20.10;42.70;;;;;;4956224;29;20206;-93
2023/09/09 02:50:19;;;;;;;2.38;0.93;;;20.30;43.10;;;;;;4957080;29;20200;-93
2023/09/09 02:52:52;;;;;;;1.92;1.10;;;20.50;42.80;;;;;;4954338;29;20208;-94
2023/09/09 02:55:24;;;;;;;3.92;1.10;;;20.60;42.00;;;;;;4956185;29;20196;-94
2023/09/09 02:57:55;;;;;;;1.33;0.63;;;20.60;41.60;;;;;;4954691;29;20206;-94
2023/09/09 03:00:26;;;;;;;1.65;0.68;;;20.60;42.20;;;;;;4954853;29;20196;-93
2023/09/09 03:02:56;;;;;;;3.20;1.00;;;20.70;40.90;;;;;;4938645;29;20213;-92
2023/09/09 03:05:27;;;;;;;2.83;0.75;;;20.80;40.80;;;;;;4951680;29;20196;-93
2023/09/09 03:08:01;;;;;;;2.55;0.80;;;20.70;39.40;;;;;;4959567;29;20656;-92
2023/09/09 03:10:34;;;;;;;3.53;1.35;;;20.90;41.60;;;;;;4939684;29;20192;-92
2023/09/09 03:13:05;;;;;;;2.35;1.08;;;20.40;38.50;;;;;;4957295;29;20578;-93
2023/09/09 03:15:35;;;;;;;2.85;0.60;;;20.60;40.20;;;;;;4943856;29;20196;-92
2023/09/09 03:18:06;;;;;;;1.40;0.80;;;20.50;38.50;;;;;;4948364;28;20204;-93
2023/09/09 03:20:37;;;;;;;1.85;0.70;;;20.70;41.70;;;;;;4961036;29;20279;-90
2023/09/09 03:23:08;;;;;;;2.53;1.33;;;21.00;39.80;;;;;;4956595;29;20239;-90
2023/09/09 03:25:41;;;;;;;1.08;0.68;;;20.90;36.60;;;;;;4956792;29;20238;-89
2023/09/09 03:28:12;;;;;;;3.15;1.30;;;20.90;36.90;;;;;;4956524;28;20223;-90
2023/09/09 03:30:58;;;;;;;1.05;0.70;;;20.90;36.80;;;;;;4948355;29;20232;-89
2023/09/09 03:33:30;;;;;;;1.95;0.47;;;21.00;36.30;;;;;;4946474;29;20220;-89
2023/09/09 03:36:02;;;;;;;2.22;0.75;;;20.90;35.80;;;;;;4956530;29;20251;-90
2023/09/09 03:38:32;;;;;;;1.10;0.40;;;20.90;37.00;;;;;;4958085;29;20211;-90
2023/09/09 03:41:07;;;;;;;2.15;0.80;;;21.10;37.80;;;;;;4938980;29;20259;-89
2023/09/09 03:43:38;;;;;;;2.38;0.68;;;21.10;40.60;;;;;;4937751;29;20216;-89
2023/09/09 03:46:09;;;;;;;1.13;0.60;;;21.00;46.40;;;;;;4937010;29;20238;-89
2023/09/09 03:48:40;;;;;;;3.28;0.75;;;20.90;47.00;;;;;;4937046;29;20204;-89
2023/09/09 03:51:10;;;;;;;2.20;0.60;;;20.90;47.60;;;;;;4937060;29;20248;-87
2023/09/09 03:53:41;;;;;;;2.90;0.80;;;20.80;48.00;;;;;;4955013;29;20204;-89
2023/09/09 03:56:14;;;;;;;1.30;0.73;;;20.80;48.70;;;;;;4951199;29;20204;-87
2023/09/09 03:58:45;;;;;;;0.65;0.60;;;20.80;49.00;;;;;;4955559;29;20589;-88
2023/09/09 04:01:15;;;;;;;2.40;0.77;;;20.80;48.10;;;;;;4938691;29;20215;-90
2023/09/09 04:03:46;;;;;;;3.63;0.77;;;20.80;48.00;;;;;;4955863;29;20235;-89
2023/09/09 04:06:19;;;;;;;1.52;0.65;;;20.80;49.10;;;;;;4955649;29;20211;-89
2023/09/09 04:08:55;;;;;;;2.08;0.75;;;20.70;48.60;;;;;;4954465;28;20196;-87
2023/09/09 04:11:31;;;;;;;1.70;0.77;;;20.50;47.60;;;;;;4954631;29;20193;-93
2023/09/09 04:14:01;;;;;;;1.33;0.60;;;20.30;47.80;;;;;;4950209;29;20192;-93
2023/09/09 04:16:32;;;;;;;1.88;0.80;;;20.10;48.00;;;;;;4952317;28;20200;-95
2023/09/09 04:19:03;;;;;;;1.92;0.82;;;20.10;48.70;;;;;;4954616;29;20196;-93
2023/09/09 04:21:34;;;;;;;2.85;0.80;;;20.10;49.40;;;;;;4938576;29;20719;-88
2023/09/09 04:24:05;;;;;;;1.02;0.80;;;20.00;50.40;;;;;;4958190;29;20227;-91
2023/09/09 04:26:38;;;;;;;2.33;1.02;;;20.00;50.10;;;;;;4978644;28;20204;-93
2023/09/09 04:29:09;;;;;;;2.03;1.10;;;19.90;49.80;;;;;;4955670;29;20196;-92
2023/09/09 04:31:39;;;;;;;3.25;0.82;;;19.80;50.30;;;;;;4940496;29;20750;-89
2023/09/09 04:34:11;;;;;;;2.78;0.80;;;19.80;50.40;;;;;;4942565;29;20239;-89
2023/09/09 04:36:41;;;;;;;2.30;0.80;;;19.80;51.20;;;;;;4956657;29;20215;-92
2023/09/09 04:39:13;;;;;;;1.55;0.73;;;19.70;51.20;;;;;;4955949;29;20196;-91
2023/09/09 04:41:47;;;;;;;1.77;0.70;;;19.60;51.10;;;;;;4957396;29;20210;-89
2023/09/09 04:44:17;;;;;;;1.58;0.70;;;19.50;52.00;;;;;;4955538;29;20232;-88
2023/09/09 04:46:48;;;;;;;3.05;0.70;;;19.50;52.60;;;;;;4962214;28;20206;-87
2023/09/09 04:49:19;;;;;;;2.85;0.60;;;19.50;52.90;;;;;;4961345;29;20218;-87
2023/09/09 04:51:50;;;;;;;3.65;0.60;;;19.40;52.00;;;;;;4943281;29;20204;-87
2023/09/09 04:54:21;;;;;;;1.20;0.60;;;19.20;52.20;;;;;;4955483;29;20207;-88
2023/09/09 04:56:54;;;;;;;1.67;0.85;;;19.20;52.70;;;;;;4954551;29;20611;-90
2023/09/09 04:59:24;;;;;;;4.03;1.50;;;19.20;52.40;;;;;;4955882;29;20208;-88
2023/09/09 05:01:55;;;;;;;3.45;1.10;;;19.30;53.00;;;;;;4941771;29;20205;-92
2023/09/09 05:04:26;;;;;;;1.30;0.50;;;19.20;52.50;;;;;;4935722;29;20319;-87
2023/09/09 05:06:57;;;;;;;2.17;0.90;;;19.20;52.80;;;;;;4936742;29;20211;-86
2023/09/09 05:09:28;;;;;;;2.50;0.90;;;19.20;53.60;;;;;;4935611;29;20275;-87
2023/09/09 05:12:00;;;;;;;1.45;0.63;;;19.20;53.90;;;;;;4936046;29;20200;-88
2023/09/09 05:14:31;;;;;;;2.53;0.70;;;19.20;53.80;;;;;;4954162;29;20202;-86
2023/09/09 05:17:02;;;;;;;1.98;0.57;;;19.30;54.70;;;;;;4953447;29;20683;-88
2023/09/09 05:19:33;;;;;;;1.88;0.63;;;19.20;54.30;;;;;;4945243;29;20197;-86
2023/09/09 05:22:03;;;;;;;1.52;0.57;;;19.00;54.20;;;;;;4941713;29;20208;-88
2023/09/09 05:24:34;;;;;;;1.80;0.65;;;19.00;54.50;;;;;;4939760;29;20243;-88
2023/09/09 05:27:07;;;;;;;1.70;0.68;;;18.90;54.80;;;;;;4954047;28;20208;-89
2023/09/09 05:29:38;;;;;;;5.10;0.50;;;18.90;55.10;;;;;;4957301;29;20203;-88
2023/09/09 05:32:09;;;;;;;1.75;0.52;;;18.90;55.10;;;;;;4965367;28;20222;-87
2023/09/09 05:34:39;;;;;;;2.88;0.70;;;19.00;55.40;;;;;;4952448;29;20236;-89
2023/09/09 05:37:11;;;;;;;1.63;0.60;;;19.00;55.70;;;;;;4956068;29;20238;-88
2023/09/09 05:39:41;;;;;;;0.60;0.50;;;19.00;55.30;;;;;;4956368;29;20664;-87
2023/09/09 05:42:14;;;;;;;1.75;0.60;;;19.00;55.20;;;;;;4953880;29;20200;-86
2023/09/09 05:44:45;;;;;;;3.20;0.63;;;18.90;56.10;;;;;;4954785;29;20323;-86
2023/09/09 05:47:15;;;;;;;1.95;0.68;;;19.00;56.30;;;;;;4955171;29;20204;-87
2023/09/09 05:49:46;;;;;;;2.50;0.60;;;19.10;55.70;;;;;;4955171;29;20204;-85
2023/09/09 05:52:17;;;;;;;1.40;0.60;;;19.00;56.40;;;;;;4954946;29;20208;-86
2023/09/09 05:54:47;;;;;;;1.90;0.52;;;19.10;56.30;;;;;;4953071;29;20200;-85
2023/09/09 05:57:20;;;;;;;1.80;0.60;;;19.10;55.80;;;;;;4937574;29;20204;-86
2023/09/09 05:59:51;;;;;;;1.98;0.90;;;19.30;55.60;;;;;;4936464;29;20208;-86
2023/09/09 06:02:21;;;;;;;3.88;0.80;;;19.50;54.40;;;;;;4940021;29;20201;-86
2023/09/09 06:04:52;;;;;;;2.92;1.13;;;19.60;53.60;;;;;;4935868;29;20251;-87
2023/09/09 06:07:23;;;;;;;1.55;0.60;;;19.70;53.30;;;;;;4950056;29;20202;-91
2023/09/09 06:09:54;;;;;;;3.10;0.80;;;19.70;53.00;;;;;;4956398;29;20204;-88
2023/09/09 06:12:29;;;;;;;2.00;0.70;;;19.80;53.60;;;;;;4942248;29;20634;-88
2023/09/09 06:14:59;;;;;;;1.08;0.50;;;19.80;53.60;;;;;;4937002;29;20201;-90
2023/09/09 06:17:30;;;;;;;1.40;0.60;;;19.80;53.80;;;;;;4945934;29;20258;-88
2023/09/09 06:20:04;;;;;;;1.40;0.65;;;20.00;52.90;;;;;;4953230;29;20196;-90
2023/09/09 06:22:36;;;;;;;1.23;0.68;;;20.00;53.30;;;;;;4953286;29;20216;-89
2023/09/09 06:25:08;;;;;;;4.05;0.90;;;20.00;53.20;;;;;;4952959;29;20227;-89
2023/09/09 06:27:41;;;;;;;2.17;0.60;;;20.00;52.90;;;;;;4951792;29;20195;-88
2023/09/09 06:30:12;;;;;;;3.22;0.93;;;19.80;53.80;;;;;;4937573;29;20196;-88
2023/09/09 06:32:43;;;;;;;1.70;0.90;;;19.90;54.60;;;;;;4951587;28;20220;-88
2023/09/09 06:35:14;;;;;;;3.72;1.20;;;19.80;55.10;;;;;;4944861;29;20231;-88
2023/09/09 06:37:44;;;;;;;3.58;0.93;;;19.80;54.00;;;;;;4951622;29;20205;-88
2023/09/09 06:40:15;;;;;;;2.45;1.10;;;19.80;54.10;;;;;;4951102;29;20291;-91
2023/09/09 06:42:49;;;;;;;1.65;0.82;;;20.00;54.70;;;;;;4955703;29;20215;-88
2023/09/09 06:45:20;;;;;;;2.03;0.60;;;19.90;54.60;;;;;;4959348;29;20227;-89
2023/09/09 06:47:51;;;;;;;2.08;0.75;;;19.90;54.80;;;;;;4941757;29;20200;-89
2023/09/09 06:50:21;;;;;;;2.53;0.75;;;19.80;55.10;;;;;;4943827;29;20656;-88
2023/09/09 06:52:53;;;;;;;5.88;3.35;;;19.90;54.30;;;;;;4944527;29;20232;-88
2023/09/09 06:55:23;;;;;;;3.53;0.93;;;19.90;53.40;;;;;;4965180;28;20659;-88
2023/09/09 06:57:56;;;;;;;2.45;0.80;;;19.70;52.10;;;;;;4976738;28;20235;-86
2023/09/09 07:00:27;;;;;;;2.63;0.90;;;19.50;52.50;;;;;;4960441;29;20258;-88
2023/09/09 07:02:58;;;;;;;2.30;0.77;;;19.20;53.00;;;;;;4961433;29;20622;-90
2023/09/09 07:05:29;;;;;;;2.65;1.17;;;19.10;53.60;;;;;;4949197;29;20319;-88
2023/09/09 07:08:00;;;;;;;1.75;1.02;;;18.90;52.80;;;;;;4959559;29;20208;-88
2023/09/09 07:10:31;;;;;;;2.45;0.88;;;18.70;53.50;;;;;;4953258;29;20207;-90
2023/09/09 07:13:05;;;;;;;1.33;0.82;;;18.60;54.50;;;;;;4960619;29;20216;-89
2023/09/09 07:15:42;;;;;;;2.85;0.90;;;18.40;55.10;;;;;;4958508;29;20211;-89
2023/09/09 07:18:13;;;;;;;1.02;0.80;;;18.20;55.90;;;;;;4957808;29;20203;-88
2023/09/09 07:20:46;;;;;;;2.30;0.88;;;18.20;56.50;;;;;;4957111;29;20199;-89
2023/09/09 07:23:17;;;;;;;2.20;0.90;;;18.10;56.60;;;;;;4955569;29;20213;-89
2023/09/09 07:25:48;;;;;;;3.45;1.60;;;17.90;56.70;;;;;;4939045;29;20232;-88
2023/09/09 07:28:23;;;;;;;1.63;0.90;;;17.90;57.10;;;;;;4958332;29;20208;-88
2023/09/09 07:30:56;;;;;;;4.45;1.98;;;17.80;57.50;;;;;;4956696;28;20223;-88
2023/09/09 07:33:27;;;;;;;3.90;1.60;;;17.70;57.90;;;;;;4957605;29;20685;-88
2023/09/09 07:36:00;;;;;;;3.63;0.98;;;17.60;58.40;;;;;;4956790;29;20622;-88
2023/09/09 07:38:30;;;;;;;2.00;1.30;;;17.60;57.90;;;;;;4937682;29;20288;-90
2023/09/09 07:41:03;;;;;;;2.10;0.90;;;17.50;57.90;;;;;;4955536;29;20287;-90
2023/09/09 07:43:35;;;;;;;2.85;1.17;;;17.40;58.60;;;;;;4957848;29;20572;-88
2023/09/09 07:46:08;;;;;;;3.50;1.08;;;17.30;58.50;;;;;;4953218;29;20247;-88
2023/09/09 07:48:38;;;;;;;2.90;2.03;;;17.20;58.90;;;;;;4958872;29;20204;-87
2023/09/09 07:51:10;;;;;;;2.55;1.20;;;17.20;59.70;;;;;;4953431;28;20564;-87
2023/09/09 07:53:40;;;;;;;2.13;1.00;;;17.20;59.70;;;;;;4956544;29;20538;-89
2023/09/09 07:56:13;;;;;;;4.15;0.80;;;17.20;58.30;;;;;;4955469;29;20709;-88
2023/09/09 07:58:47;;;;;;;3.45;1.20;;;17.10;58.90;;;;;;4938068;29;20292;-89
2023/09/09 08:01:18;;;;;;;2.85;1.15;;;17.00;59.10;;;;;;4945211;29;20621;-89
2023/09/09 08:03:48;;;;;;;1.92;1.10;;;17.10;59.10;;;;;;4959579;28;20211;-90
2023/09/09 08:06:20;;;;;;;2.03;1.02;;;17.00;59.40;;;;;;4947958;28;20255;-90
2023/09/09 08:08:52;;;;;;;4.15;1.33;;;16.90;59.80;;;;;;4949244;29;20207;-88
2023/09/09 08:11:23;;;;;;;3.38;2.28;;;16.90;60.50;;;;;;4943603;29;20224;-88
2023/09/09 08:13:56;;;;;;;2.88;1.85;;;16.90;61.10;;;;;;4939490;29;20211;-88
2023/09/09 08:16:27;;;;;;;2.78;1.75;;;16.80;61.60;;;;;;4937949;29;20212;-88
2023/09/09 08:18:57;;;;;;;3.47;1.80;;;16.80;63.00;;;;;;4954879;29;20214;-89
2023/09/09 08:21:28;;;;;;;5.43;1.55;;;16.80;64.00;;;;;;4956812;29;20538;-89
2023/09/09 08:24:03;;;;;;;4.88;2.00;;;16.70;64.90;;;;;;4956888;29;20203;-89
2023/09/09 08:26:34;;;;;;;3.13;1.70;;;16.80;64.00;;;;;;4956100;29;20208;-89
2023/09/09 08:29:08;;;;;;;2.53;1.60;;;16.70;65.30;;;;;;4956542;29;20200;-88
2023/09/09 08:31:40;;;;;;;2.72;1.50;;;16.60;65.60;;;;;;4953994;29;20233;-89
2023/09/09 08:34:10;;;;;;;2.42;1.60;;;16.60;66.20;;;;;;4955581;29;20227;-87
2023/09/09 08:36:42;;;;;;;2.78;1.52;;;16.60;67.30;;;;;;4941483;29;20300;-87
2023/09/09 08:39:12;;;;;;;2.90;1.67;;;16.60;66.40;;;;;;4941005;29;20188;-89
2023/09/09 08:41:51;;;;;;;2.00;1.10;;;16.60;67.00;;;;;;4956707;29;20208;-89
2023/09/09 08:44:41;;;;;;;2.45;1.10;;;16.60;66.60;;;;;;4956586;29;20204;-91
2023/09/09 08:47:11;;;;;;;4.53;2.13;;;16.50;65.00;;;;;;4937392;29;20212;-88
2023/09/09 08:49:45;;;;;;;7.07;3.53;;;16.50;64.70;;;;;;4943905;29;20229;-88
2023/09/09 08:52:24;;;;;;;3.80;2.25;;;16.50;66.40;;;;;;4965289;28;20210;-90
2023/09/09 08:54:57;;;;;;;5.05;2.10;;;16.50;65.50;;;;;;4968993;29;20214;-91
2023/09/09 08:57:28;;;;;;;4.05;1.83;;;16.50;66.80;;;;;;4964692;29;20208;-90
2023/09/09 09:00:06;;;;;;;3.65;1.60;;;16.50;67.50;;;;;;4947107;29;20211;-91
2023/09/09 09:02:37;;;;;;;3.22;1.50;;;16.50;67.10;;;;;;4941147;29;20264;-90
2023/09/09 09:05:08;;;;;;;3.70;1.30;;;16.40;67.10;;;;;;4940169;29;20222;-90
2023/09/09 09:07:39;;;;;;;5.07;1.70;;;16.40;68.60;;;;;;4957716;29;20196;-89
2023/09/09 09:10:11;;;;;;;5.00;2.90;;;16.40;67.80;;;;;;4944602;29;20200;-90
2023/09/09 09:12:45;;;;;;;7.68;4.43;;;16.40;68.50;;;;;;4956130;29;20246;-89
2023/09/09 09:15:20;;;;;;;7.30;3.80;;;16.40;68.20;;;;;;4955341;29;20207;-88
2023/09/09 09:17:51;;;;;;;9.70;4.63;;;16.40;68.90;;;;;;4955089;29;20203;-87
2023/09/09 09:20:30;;;;;;;7.28;3.80;;;16.40;69.00;;;;;;4954376;29;20200;-88
2023/09/09 09:23:02;;;;;;;6.93;4.18;;;16.40;70.30;;;;;;4953591;29;20212;-86
2023/09/09 09:25:39;;;;;;;9.52;4.25;;;16.30;69.80;;;;;;4936836;29;20315;-91
2023/09/09 09:28:10;;;;;;;8.25;4.65;;;16.30;69.30;;;;;;4949978;29;20207;-91
2023/09/09 09:30:42;;;;;;;11.15;5.95;;;16.30;68.10;;;;;;4955161;28;20199;-89
2023/09/09 09:33:15;;;;;;;11.75;5.47;;;16.30;67.60;;;;;;4956534;29;20200;-92
2023/09/09 09:35:45;;;;;;;10.98;6.40;;;16.10;68.50;;;;;;4956717;29;20636;-92
2023/09/09 09:38:19;;;;;;;9.85;5.35;;;16.00;69.70;;;;;;4955358;29;20208;-91
2023/09/09 09:40:50;;;;;;;18.83;8.63;;;16.00;70.70;;;;;;4950715;29;20212;-90
2023/09/09 09:43:23;;;;;;;8.30;3.67;;;15.90;70.00;;;;;;4955662;29;20295;-90
2023/09/09 09:45:56;;;;;;;13.93;6.25;;;15.90;69.70;;;;;;4956945;29;20231;-90
2023/09/09 09:48:30;;;;;;;6.65;3.13;;;15.80;69.00;;;;;;4957360;29;20204;-89
2023/09/09 09:51:01;;;;;;;10.20;4.38;;;15.80;66.90;;;;;;4954581;29;20207;-88
2023/09/09 09:53:32;;;;;;;10.40;3.80;;;15.80;67.10;;;;;;4954958;29;20206;-89
2023/09/09 09:56:04;;;;;;;9.15;3.22;;;15.80;65.90;;;;;;4953370;29;20231;-89
2023/09/09 09:58:39;;;;;;;23.90;8.15;;;15.80;64.20;;;;;;4943336;29;20199;-88
2023/09/09 10:01:12;;;;;;;7.95;3.42;;;15.70;63.90;;;;;;4950188;29;20193;-90
2023/09/09 10:03:51;;;;;;;7.03;2.60;;;15.60;64.80;;;;;;4935552;29;20212;-89
2023/09/09 10:06:30;;;;;;;6.85;3.30;;;15.60;64.10;;;;;;4950841;29;20283;-89
2023/09/09 10:09:12;;;;;;;10.52;6.85;;;15.60;63.40;;;;;;4953630;29;20200;-90
2023/09/09 10:11:47;;;;;;;15.10;6.07;;;15.60;63.70;;;;;;4954070;29;20204;-90
2023/09/09 10:14:20;;;;;;;10.25;5.22;;;15.50;63.60;;;;;;4953179;29;20218;-92
2023/09/09 10:16:55;;;;;;;4.38;2.00;;;15.40;63.40;;;;;;4937260;29;20208;-92
2023/09/09 10:19:27;;;;;;;5.50;2.97;;;15.40;63.20;;;;;;4954266;29;20202;-89
2023/09/09 10:22:00;;;;;;;8.18;2.70;;;15.30;63.30;;;;;;4957004;29;20204;-92
2023/09/09 10:24:34;;;;;;;7.70;3.03;;;15.30;62.90;;;;;;4950968;29;20210;-89
2023/09/09 10:27:05;;;;;;;11.80;4.45;;;15.20;63.40;;;;;;4934879;29;20248;-89
2023/09/09 10:29:39;;;;;;;7.43;2.80;;;15.00;63.00;;;;;;4934895;29;20200;-91
2023/09/09 10:32:12;;;;;;;3.58;1.95;;;15.10;63.20;;;;;;4953292;28;20718;-88
2023/09/09 10:34:44;;;;;;;3.65;2.08;;;15.00;62.80;;;;;;4953207;29;20264;-90
2023/09/09 10:37:19;;;;;;;4.22;2.17;;;15.00;63.20;;;;;;4957443;29;20200;-90
2023/09/09 10:39:52;;;;;;;5.85;1.90;;;15.00;62.90;;;;;;4938183;29;20458;-90
2023/09/09 10:42:22;;;;;;;5.40;2.40;;;14.80;63.10;;;;;;4953778;29;20196;-87
2023/09/09 10:44:55;;;;;;;3.88;2.08;;;14.80;63.90;;;;;;4952440;29;20660;-88
2023/09/09 10:47:28;;;;;;;4.18;1.65;;;14.80;63.50;;;;;;4953995;29;20207;-88
2023/09/09 10:50:08;;;;;;;2.67;1.60;;;14.80;63.90;;;;;;4954226;29;20197;-87
2023/09/09 10:52:39;;;;;;;5.50;2.50;;;14.70;64.10;;;;;;4953610;29;20204;-88
2023/09/09 10:55:16;;;;;;;6.88;2.35;;;14.60;64.50;;;;;;4953622;29;20200;-89
2023/09/09 10:57:58;;;;;;;5.65;2.22;;;14.50;64.70;;;;;;4956201;29;20200;-88
2023/09/09 11:00:42;;;;;;;7.57;2.50;;;14.50;65.40;;;;;;4948814;29;20200;-87
2023/09/09 11:03:18;;;;;;;3.90;1.90;;;14.30;66.00;;;;;;4940160;29;20205;-87
2023/09/09 11:06:03;;;;;;;3.17;1.63;;;14.30;66.50;;;;;;4965113;29;20239;-89
2023/09/09 11:08:35;;;;;;;3.72;2.00;;;14.40;65.70;;;;;;4956372;29;20196;-88
2023/09/09 11:11:27;;;;;;;3.55;1.42;;;14.30;66.10;;;;;;4947306;29;20282;-87
2023/09/09 11:14:05;;;;;;;5.50;1.70;;;14.30;66.60;;;;;;4953086;29;20200;-86
2023/09/09 11:16:37;;;;;;;5.20;1.67;;;14.40;66.90;;;;;;4938735;29;20570;-88
2023/09/09 11:19:12;;;;;;;3.00;1.20;;;14.40;66.60;;;;;;4954057;29;20574;-88
2023/09/09 11:21:44;;;;;;;4.03;1.60;;;14.30;67.80;;;;;;4952759;29;20208;-88
2023/09/09 11:24:15;;;;;;;3.75;1.70;;;14.30;66.70;;;;;;4951394;29;20201;-88
2023/09/09 11:26:48;;;;;;;3.05;1.40;;;14.20;66.60;;;;;;4954163;28;20228;-88
2023/09/09 11:29:20;;;;;;;3.30;1.40;;;14.20;68.30;;;;;;4956510;29;20204;-87
2023/09/09 11:31:51;;;;;;;4.45;1.38;;;14.20;66.60;;;;;;4956424;29;20220;-88
2023/09/09 11:34:32;;;;;;;2.75;1.20;;;14.20;66.60;;;;;;4956834;29;20236;-88
2023/09/09 11:37:03;;;;;;;4.07;1.27;;;14.20;66.40;;;;;;4956811;29;20584;-87
2023/09/09 11:39:41;;;;;;;3.83;1.23;;;14.30;67.10;;;;;;4949301;29;20204;-87
2023/09/09 11:42:12;;;;;;;4.22;1.20;;;14.30;66.80;;;;;;4942449;29;20208;-87
2023/09/09 11:44:43;;;;;;;2.70;1.20;;;14.40;66.70;;;;;;4937207;29;20196;-89
2023/09/09 11:47:15;;;;;;;3.38;1.52;;;14.30;67.30;;;;;;4936722;29;20233;-88
2023/09/09 11:49:50;;;;;;;3.35;1.48;;;14.30;67.40;;;;;;4960877;28;20204;-88
2023/09/09 11:52:22;;;;;;;4.07;1.50;;;14.20;68.00;;;;;;4964244;29;20199;-88
2023/09/09 11:54:53;;;;;;;4.57;1.45;;;14.20;69.10;;;;;;4964355;29;20211;-87
2023/09/09 11:57:25;;;;;;;3.40;1.42;;;14.30;70.20;;;;;;4940069;29;20228;-88
2023/09/09 11:59:57;;;;;;;3.88;1.38;;;14.30;70.70;;;;;;4952133;29;20250;-89
2023/09/09 12:02:30;;;;;;;4.07;1.35;;;14.30;70.40;;;;;;4958894;29;20204;-87
2023/09/09 12:05:04;;;;;;;2.50;1.27;;;14.40;70.20;;;;;;4958950;29;20203;-87
2023/09/09 12:07:36;;;;;;;4.68;1.48;;;14.30;70.10;;;;;;4959329;29;20719;-88
2023/09/09 12:10:12;;;;;;;3.05;1.42;;;14.30;70.30;;;;;;4958809;29;20569;-87
2023/09/09 12:12:46;;;;;;;3.30;1.50;;;14.30;69.90;;;;;;4968318;28;20200;-88
2023/09/09 12:15:17;;;;;;;3.42;1.40;;;14.20;69.50;;;;;;4952777;29;20262;-88
2023/09/09 12:17:48;;;;;;;5.78;2.00;;;14.10;70.30;;;;;;4960312;29;20200;-89
2023/09/09 12:20:24;;;;;;;3.38;1.60;;;14.10;71.10;;;;;;4961949;29;20208;-87
2023/09/09 12:22:55;;;;;;;4.05;2.55;;;14.10;72.50;;;;;;4957678;29;20619;-88
2023/09/09 12:25:36;;;;;;;2.60;1.90;;;14.20;71.60;;;;;;4942869;29;20271;-88
2023/09/09 12:28:18;;;;;;;3.67;1.73;;;14.00;71.20;;;;;;4940481;29;20251;-87
2023/09/09 12:30:50;;;;;;;2.80;1.30;;;14.10;72.00;;;;;;4942012;28;20219;-87
2023/09/09 12:33:21;;;;;;;3.45;1.15;;;14.10;72.20;;;;;;4940381;29;20227;-87
2023/09/09 12:35:54;;;;;;;3.03;1.23;;;14.10;72.40;;;;;;4954425;29;20605;-87
2023/09/09 12:38:25;;;;;;;4.10;1.27;;;14.10;73.00;;;;;;4958038;28;20271;-87
2023/09/09 12:41:07;;;;;;;2.83;1.10;;;14.00;71.60;;;;;;4958848;29;20639;-86
2023/09/09 12:43:39;;;;;;;3.67;0.90;;;14.00;72.70;;;;;;4939503;29;20200;-86
2023/09/09 12:46:15;;;;;;;2.55;1.00;;;14.00;73.10;;;;;;4939178;29;20220;-85
2023/09/09 12:49:00;;;;;;;4.80;1.27;;;14.10;73.80;;;;;;4953972;29;20196;-85
2023/09/09 12:51:33;;;;;;;3.40;1.15;;;14.10;74.10;;;;;;4958410;29;20212;-85
2023/09/09 12:54:04;;;;;;;1.92;0.90;;;14.10;73.40;;;;;;4957142;29;20208;-85
2023/09/09 12:56:35;;;;;;;2.38;0.95;;;14.00;73.20;;;;;;4955852;29;20196;-86
2023/09/09 12:59:07;;;;;;;3.67;1.10;;;14.00;71.60;;;;;;4957335;29;20210;-86
2023/09/09 13:01:37;;;;;;;1.95;1.05;;;13.80;72.50;;;;;;4957663;29;20184;-86
2023/09/09 13:04:08;;;;;;;3.20;1.17;;;13.70;71.70;;;;;;4942665;29;20207;-86
2023/09/09 13:06:41;;;;;;;3.35;0.93;;;13.80;71.70;;;;;;4953682;28;20421;-85
2023/09/09 13:09:12;;;;;;;2.88;0.85;;;13.70;72.60;;;;;;4953835;29;20283;-87
2023/09/09 13:11:43;;;;;;;3.22;0.88;;;13.70;72.20;;;;;;4952461;29;20307;-85